LFMH/EBU METAR and TAF weather

Enter ICAO airport designator
Station Type Date Time Source
LFMH METAR 2019/08/18 09:00 UTC NOAA

LFMH 180900Z AUTO 20009KT 180V240 CAVOK 28/16 Q1011 BECMG 22015G25KT FEW075CB


Station Type Date Time Source
LFMH Decoded METAR 2019/08/18 09:00 UTC NOAA

Station name not available
Aug 18, 2019 - 05:00 AM EDT / 2019.08.18 0900 UTC
Wind: from the SSW (200 degrees) at 10 MPH (9 KT) (direction variable):0
Visibility: greater than 7 mile(s):0
Weather: Cumulonimbus clouds observed
Temperature: 82 F (28 C)
Dew Point: 60 F (16 C)
Relative Humidity: 48%
Pressure (altimeter): 29.85 in. Hg (1011 hPa)
ob: LFMH 180900Z AUTO 20009KT 180V240 CAVOK 28/16 Q1011 BECMG 22015G25KT FEW075CB
cycle: 9

Station Type Date Time Source
LFMH TAF 2019/08/18 09:21 UTC NOAA

TAF LFMH 180800Z 1809/1909 22008KT CAVOK
BECMG 1810/1812 22015G25KT FEW075CB PROB40
TEMPO 1814/1821 26025G45KT 3000 TSRAGR BKN025 BKN055CB PROB40
TEMPO 1821/1907 32020G40KT 4000 TSRA BKN016 SCT045CB OVC055
BECMG 1907/1909 35006KT BKN018

Example: see airport list